NORTHERN NASSAU  -  Rip Current Statement Rip Current Statement     Air Quality Alert Air Quality Alert        NORTHERN QUEENS  -  Rip Current Statement Rip Current Statement     Air Quality Alert Air Quality Alert        SOUTHERN NASSAU  -  Rip Current Statement Rip Current Statement     Air Quality Alert Air Quality Alert        SOUTHERN QUEENS  -  Rip Current Statement Rip Current Statement     Air Quality Alert Air Quality Alert        NORTHEAST SUFFOLK  -  Air Quality Alert Air Quality Alert        NORTHWEST SUFFOLK  -  Air Quality Alert Air Quality Alert        SOUTHEAST SUFFOLK  -  Air Quality Alert Air Quality Alert        SOUTHWEST SUFFOLK  -  Air Quality Alert Air Quality Alert      

Active alerts

Northern Queens
  Details for Northern Queens Rip Current Statement  +1 additional alert
Southern Queens
  Details for Southern Queens Rip Current Statement  +1 additional alert
Northern Nassau
  Details for Northern Nassau Rip Current Statement  +1 additional alert
Southern Nassau
  Details for Southern Nassau Rip Current Statement  +1 additional alert
Northwest Suffolk
  Details for Northwest Suffolk Air Quality Alert
Southwest Suffolk
  Details for Southwest Suffolk Air Quality Alert
Northeast Suffolk
  Details for Northeast Suffolk Air Quality Alert
Southeast Suffolk
  Details for Southeast Suffolk Air Quality Alert


WXM80 ListenWXM80 Stop

You find our weather info also at:

UK Metoffice

WeatherCloud

Weather Underground

Northeastern Weather Network

AWEKAS

Citizen Weather Observer Program (CWOP)

HAMweather, WeatherForYou, PWS Weather


Nearby METAR Reports

   
KFRG - Farmingdale, New York, USA
Distance from station: SSW 14 mi
Updated: May 25 2018 9:53 am
Clear  
Clear  
   Wind: WSW 9.2 mph
Wind: WSW 9.2 mph
Temperature: 75.2°F
Dew Point: 57.2°F
Humidity: 54%
Barometer: 30.02 inHg
Clouds: Clear
Visibility: 10 mi
Cloud details: Clear
KFRG 251353Z 24008KT 10SM CLR 24/14 A3002 RMK AO2 SLP163 T02440139
KISP - Islip, New York, USA
Distance from station: SE 15 mi
Updated: May 25 2018 9:56 am
Few Clouds  
Few Clouds  
   Wind: SW 8.1 mph
Wind: SW 8.1 mph
Temperature: 75.2°F
Dew Point: 57.2°F
Humidity: 54%
Barometer: 30.01 inHg
Clouds: Few Clouds
Visibility: 10 mi
Cloud details: Few Clouds 7620 m
KISP 251356Z 22007KT 10SM FEW250 24/14 A3001 RMK AO2 SLP161 T02440144
KBDR - Bridgeport, Connecticut, USA
Distance from station: NNE 20 mi
Updated: May 25 2018 9:52 am
Clear  
Clear  
   Wind: SW 12.7 mph
Wind: SW 12.7 mph
Temperature: 69.8°F
Dew Point: 53.6°F
Humidity: 57%
Barometer: 29.99 inHg
Clouds: Clear
Visibility: 10 mi
Cloud details: Clear
KBDR 251352Z 22011KT 10SM CLR 21/12 A2999 RMK AO2 SLP156 T02110122
KHPN - White Plains, New York, USA
Distance from station: WNW 22 mi
Updated: May 25 2018 9:56 am
Clear  
Clear  
   Wind: West 9.2 mph
Wind: West 9.2 mph
Temperature: 75.2°F
Dew Point: 51.8°F
Humidity: 44%
Barometer: 30 inHg
Clouds: Clear
Visibility: 10 mi
Cloud details: Clear
KHPN 251356Z 26008KT 10SM CLR 24/11 A3000 RMK AO2 SLP156 T02440106
KHWV - Shirley, New York, USA
Distance from station: ESE 25 mi
Updated: May 25 2018 9:56 am
Clear  
Clear  
   Wind: South 8.1 mph
Wind: South 8.1 mph
Temperature: 73.4°F
Dew Point: 60.8°F
Humidity: 65%
Barometer: 30.02 inHg
Clouds: Clear
Visibility: 10 mi
Cloud details: Clear
KHWV 251356Z AUTO 19007KT 10SM CLR 23/16 A3002 RMK AO2 SLP163 T02330156
KJFK - NYC/JFK Arpt, New York, USA
Distance from station: SW 30 mi
Updated: May 25 2018 9:51 am
Few Clouds  
Few Clouds  
   Wind: SW 16.1 mph
Wind: SW 16.1 mph
Temperature: 71.6°F
Dew Point: 59°F
Humidity: 65%
Barometer: 30.03 inHg
Clouds: Few Clouds
Visibility: 10 mi
Cloud details: Few Clouds 7620 m
KJFK 251351Z 23014KT 10SM FEW250 22/15 A3003 RMK AO2 SLP170 T02220150
KLGA - NYC/La Guardia, New York, USA
Distance from station: WSW 30 mi
Updated: May 25 2018 9:51 am
Few Clouds  
Few Clouds  
   Wind: SW 9.2 mph
Wind: SW 9.2 mph
Temperature: 80.6°F
Dew Point: 50°F
Humidity: 34%
Barometer: 30 inHg
Clouds: Few Clouds
Visibility: 10 mi
Cloud details: Few Clouds 7620 m
KLGA 251351Z 23008KT 10SM FEW250 27/10 A3000 RMK AO2 SLP160 T02670100
KDXR - Danbury, Connecticut, USA
Distance from station: NNW 32 mi
Updated: May 25 2018 9:53 am
Clear  
Clear  
   Wind: SW 6.9 mph
Wind: SW 6.9 mph
Temperature: 73.4°F
Dew Point: 55.4°F
Humidity: 53%
Barometer: 30.02 inHg
Clouds: Clear
Visibility: 10 mi
Cloud details: Clear
KDXR 251353Z 23006KT 10SM CLR 23/13 A3002 RMK AO2 SLP160 T02330133
KHVN - New Haven/Tweed, Connecticut, USA
Distance from station: NE 34 mi
Updated: May 25 2018 9:53 am
Few Clouds  
Few Clouds  
   Wind: SSW 9.2 mph
Wind: SSW 9.2 mph
Temperature: 68°F
Dew Point: 55.4°F
Humidity: 64%
Barometer: 30 inHg
Clouds: Few Clouds
Visibility: 10 mi
Cloud details: Few Clouds 7620 m
KHVN 251353Z 21008KT 10SM FEW250 20/13 A3000 RMK AO2 SLP157 T02000128
KNYC - NYC/Central Park, New York, USA
Distance from station: WSW 35 mi
Updated: May 25 2018 9:51 am
Clear  
Clear  
   Wind: varies 5.8 mph
Wind: varies 5.8 mph
Temperature: 75.2°F
Dew Point: 53.6°F
Humidity: 47%
Barometer: 30.04 inHg
Clouds: Clear
Visibility: 10 mi
Cloud details: Clear
KNYC 251351Z AUTO VRB05KT 10SM CLR 24/12 A3004 RMK AO2 SLP163 T02390122 $
KFOK - Westhampton Beach, New York, USA
Distance from station: E 38 mi
Updated: May 25 2018 9:53 am
Clear  
Clear  
   Wind: SW 10.4 mph
Wind: SW 10.4 mph
Temperature: 71.6°F
Dew Point: 57.2°F
Humidity: 61%
Barometer: 30.03 inHg
Clouds: Clear
Visibility: 10 mi
Cloud details: Clear
KFOK 251353Z 23009KT 10SM CLR 22/14 A3003 RMK AO2 SLP168 T02220139
KTEB - Teterboro, New Jersey, USA
Distance from station: W 38 mi
Updated: May 25 2018 9:51 am
Clear  
Clear  
   Wind: WSW 8.1 mph
Wind: WSW 8.1 mph
Temperature: 80.6°F
Dew Point: 51.8°F
Humidity: 37%
Barometer: 29.99 inHg
Clouds: Clear
Visibility: 10 mi
Cloud details: Clear
KTEB 251351Z 25007KT 10SM CLR 27/11 A2999 RMK AO2 SLP156 T02670106
KOXC - Oxford/Waterbury, Connecticut, USA
Distance from station: NNE 39 mi
Updated: May 25 2018 9:51 am
Clear  
Clear  
   Wind: varies 6.9 mph
Wind: varies 6.9 mph
Temperature: 73.4°F
Dew Point: 53.6°F
Humidity: 50%
Barometer: 30.01 inHg
Clouds: Clear
Visibility: 10 mi
Cloud details: Clear
KOXC 251351Z VRB06KT 10SM CLR 23/12 A3001 RMK AO2 SLP171 T02280122
KEWR - Newark, New Jersey, USA
Distance from station: WSW 47 mi
Updated: May 25 2018 9:51 am
Few Clouds  
Few Clouds  
   Wind: SW 12.7 mph<br />Gust to 12.7 mph
Wind: SW 12.7 mph
Gust to 12.7 mph
Temperature: 78.8°F
Dew Point: 53.6°F
Humidity: 42%
Barometer: 30.02 inHg
Clouds: Few Clouds
Visibility: 10 mi
Cloud details: Few Clouds 7620 m
KEWR 251351Z 23011G17KT 10SM FEW250 26/12 A3002 RMK AO2 SLP164 T02560122
KMMK - Meriden, Connecticut, USA
Distance from station: NNE 48 mi
Updated: May 25 2018 9:53 am
Clear  
Clear  
   Wind: West 4.6 mph
Wind: West 4.6 mph
Temperature: 77°F
Dew Point: 51.8°F
Humidity: 42%
Barometer: 29.98 inHg
Clouds: Clear
Visibility: 10 mi
Cloud details: Clear
KMMK 251353Z AUTO 27004KT 10SM CLR 25/11 A2998 RMK AO2 SLP150 T02500111

Script developed by  Saratoga-weather.org Adapted for the template by  Weerstation Leuven

Astronomy: Mercury can get as hot as 800 degrees and can be as cold as 300 degrees below zero.